sensor_id;sensor_type;location;lat;lon;timestamp;pressure;altitude;pressure_sealevel;temperature;humidity
72024;BME280;59889;50.700;5.440;2023-07-30T00:01:28;99528.66;;;26.11;31.24
72024;BME280;59889;50.700;5.440;2023-07-30T00:03:54;99530.67;;;26.18;31.17
72024;BME280;59889;50.700;5.440;2023-07-30T00:06:20;99529.38;;;26.11;31.23
72024;BME280;59889;50.700;5.440;2023-07-30T00:08:46;99530.00;;;26.13;31.22
72024;BME280;59889;50.700;5.440;2023-07-30T00:11:11;99533.48;;;25.85;31.26
72024;BME280;59889;50.700;5.440;2023-07-30T00:13:37;99533.07;;;26.13;31.22
72024;BME280;59889;50.700;5.440;2023-07-30T00:16:03;99531.98;;;25.83;31.26
72024;BME280;59889;50.700;5.440;2023-07-30T00:18:29;99532.58;;;26.09;31.24
72024;BME280;59889;50.700;5.440;2023-07-30T00:20:55;99528.60;;;26.05;31.27
72024;BME280;59889;50.700;5.440;2023-07-30T00:23:21;99531.26;;;26.05;31.26
72024;BME280;59889;50.700;5.440;2023-07-30T00:25:47;99531.97;;;25.89;31.17
72024;BME280;59889;50.700;5.440;2023-07-30T00:28:12;99526.18;;;26.18;31.10
72024;BME280;59889;50.700;5.440;2023-07-30T00:30:38;99527.87;;;26.09;31.18
72024;BME280;59889;50.700;5.440;2023-07-30T00:33:04;99530.87;;;25.83;31.20
72024;BME280;59889;50.700;5.440;2023-07-30T00:35:30;99535.36;;;26.04;31.23
72024;BME280;59889;50.700;5.440;2023-07-30T00:37:56;99536.00;;;26.06;31.23
72024;BME280;59889;50.700;5.440;2023-07-30T00:40:22;99543.61;;;26.03;31.23
72024;BME280;59889;50.700;5.440;2023-07-30T00:42:47;99537.76;;;26.01;31.26
72024;BME280;59889;50.700;5.440;2023-07-30T00:45:13;99534.84;;;26.05;31.21
72024;BME280;59889;50.700;5.440;2023-07-30T00:47:40;99531.31;;;26.03;31.23
72024;BME280;59889;50.700;5.440;2023-07-30T00:50:06;99536.91;;;26.04;31.21
72024;BME280;59889;50.700;5.440;2023-07-30T00:52:32;99542.24;;;26.05;31.20
72024;BME280;59889;50.700;5.440;2023-07-30T00:54:57;99541.76;;;26.06;31.20
72024;BME280;59889;50.700;5.440;2023-07-30T00:57:23;99541.26;;;26.31;31.17
72024;BME280;59889;50.700;5.440;2023-07-30T00:59:49;99540.50;;;26.02;31.23
72024;BME280;59889;50.700;5.440;2023-07-30T01:02:14;99547.80;;;26.31;31.16
72024;BME280;59889;50.700;5.440;2023-07-30T01:04:40;99550.61;;;26.10;31.10
72024;BME280;59889;50.700;5.440;2023-07-30T01:07:06;99555.41;;;25.95;31.28
72024;BME280;59889;50.700;5.440;2023-07-30T01:09:32;99557.17;;;26.01;31.21
72024;BME280;59889;50.700;5.440;2023-07-30T01:11:58;99559.68;;;25.90;31.31
72024;BME280;59889;50.700;5.440;2023-07-30T01:14:24;99551.48;;;25.94;31.28
72024;BME280;59889;50.700;5.440;2023-07-30T01:16:49;99551.23;;;25.77;31.18
72024;BME280;59889;50.700;5.440;2023-07-30T01:19:15;99554.91;;;26.03;31.18
72024;BME280;59889;50.700;5.440;2023-07-30T01:21:41;99558.94;;;25.79;31.15
72024;BME280;59889;50.700;5.440;2023-07-30T01:24:07;99566.83;;;26.03;31.15
72024;BME280;59889;50.700;5.440;2023-07-30T01:26:37;99568.16;;;25.99;31.20
72024;BME280;59889;50.700;5.440;2023-07-30T01:29:00;99568.00;;;26.00;31.18
72024;BME280;59889;50.700;5.440;2023-07-30T01:31:26;99567.95;;;25.79;31.13
72024;BME280;59889;50.700;5.440;2023-07-30T01:33:52;99563.19;;;26.05;31.11
72024;BME280;59889;50.700;5.440;2023-07-30T01:36:17;99567.83;;;25.98;31.18
72024;BME280;59889;50.700;5.440;2023-07-30T01:38:43;99571.85;;;26.03;31.12
72024;BME280;59889;50.700;5.440;2023-07-30T01:41:08;99583.91;;;26.04;31.09
72024;BME280;59889;50.700;5.440;2023-07-30T01:43:34;99582.47;;;26.03;31.11
72024;BME280;59889;50.700;5.440;2023-07-30T01:46:00;99580.37;;;26.01;31.12
72024;BME280;59889;50.700;5.440;2023-07-30T01:48:26;99585.81;;;25.96;31.19
72024;BME280;59889;50.700;5.440;2023-07-30T01:50:51;99584.49;;;26.00;31.11
72024;BME280;59889;50.700;5.440;2023-07-30T01:53:17;99583.10;;;25.95;31.17
72024;BME280;59889;50.700;5.440;2023-07-30T01:55:43;99584.69;;;25.91;31.22
72024;BME280;59889;50.700;5.440;2023-07-30T01:58:09;99585.86;;;25.87;31.25
72024;BME280;59889;50.700;5.440;2023-07-30T02:00:35;99588.48;;;25.73;31.12
72024;BME280;59889;50.700;5.440;2023-07-30T02:03:00;99590.90;;;25.87;31.22
72024;BME280;59889;50.700;5.440;2023-07-30T02:05:26;99588.10;;;25.97;31.12
72024;BME280;59889;50.700;5.440;2023-07-30T02:07:52;99587.70;;;25.93;31.15
72024;BME280;59889;50.700;5.440;2023-07-30T02:10:18;99588.17;;;25.72;31.11
72024;BME280;59889;50.700;5.440;2023-07-30T02:12:44;99592.07;;;25.92;31.14
72024;BME280;59889;50.700;5.440;2023-07-30T02:15:10;99599.00;;;25.93;31.11
72024;BME280;59889;50.700;5.440;2023-07-30T02:17:36;99598.81;;;25.70;31.11
72024;BME280;59889;50.700;5.440;2023-07-30T02:20:02;99605.19;;;25.97;31.07
72024;BME280;59889;50.700;5.440;2023-07-30T02:22:27;99604.44;;;25.92;31.12
72024;BME280;59889;50.700;5.440;2023-07-30T02:24:53;99605.11;;;25.92;31.12
72024;BME280;59889;50.700;5.440;2023-07-30T02:27:19;99601.73;;;25.74;31.04
72024;BME280;59889;50.700;5.440;2023-07-30T02:29:45;99598.83;;;25.76;31.00
72024;BME280;59889;50.700;5.440;2023-07-30T02:32:10;99596.83;;;25.61;31.18
72024;BME280;59889;50.700;5.440;2023-07-30T02:34:36;99596.88;;;25.66;31.11
72024;BME280;59889;50.700;5.440;2023-07-30T02:37:03;99591.20;;;25.98;31.00
72024;BME280;59889;50.700;5.440;2023-07-30T02:39:28;99591.08;;;25.96;31.01
72024;BME280;59889;50.700;5.440;2023-07-30T02:41:54;99590.07;;;25.90;31.08
72024;BME280;59889;50.700;5.440;2023-07-30T02:44:20;99588.76;;;25.93;31.04
72024;BME280;59889;50.700;5.440;2023-07-30T02:46:45;99586.46;;;25.96;31.01
72024;BME280;59889;50.700;5.440;2023-07-30T02:49:11;99584.50;;;25.94;31.01
72024;BME280;59889;50.700;5.440;2023-07-30T02:51:37;99582.44;;;25.95;30.98
72024;BME280;59889;50.700;5.440;2023-07-30T02:54:04;99583.08;;;25.73;30.94
72024;BME280;59889;50.700;5.440;2023-07-30T02:56:29;99584.15;;;25.94;30.98
72024;BME280;59889;50.700;5.440;2023-07-30T02:58:55;99587.08;;;25.63;31.05
72024;BME280;59889;50.700;5.440;2023-07-30T03:01:20;99588.72;;;25.84;31.07
72024;BME280;59889;50.700;5.440;2023-07-30T03:03:46;99592.60;;;25.90;31.01
72024;BME280;59889;50.700;5.440;2023-07-30T03:06:12;99596.92;;;25.85;31.06
72024;BME280;59889;50.700;5.440;2023-07-30T03:08:38;99602.87;;;25.85;31.06
72024;BME280;59889;50.700;5.440;2023-07-30T03:11:04;99601.09;;;25.64;31.03
72024;BME280;59889;50.700;5.440;2023-07-30T03:13:30;99603.00;;;25.89;31.01
72024;BME280;59889;50.700;5.440;2023-07-30T03:15:56;99607.30;;;25.89;31.02
72024;BME280;59889;50.700;5.440;2023-07-30T03:18:22;99613.15;;;25.62;31.04
72024;BME280;59889;50.700;5.440;2023-07-30T03:20:47;99621.66;;;25.83;31.08
72024;BME280;59889;50.700;5.440;2023-07-30T03:23:13;99627.32;;;25.86;31.03
72024;BME280;59889;50.700;5.440;2023-07-30T03:25:39;99621.92;;;25.84;31.07
72024;BME280;59889;50.700;5.440;2023-07-30T03:28:05;99627.91;;;25.81;31.10
72024;BME280;59889;50.700;5.440;2023-07-30T03:30:31;99629.51;;;26.02;31.11
72024;BME280;59889;50.700;5.440;2023-07-30T03:32:57;99632.29;;;25.83;31.09
72024;BME280;59889;50.700;5.440;2023-07-30T03:35:22;99632.98;;;25.80;31.10
72024;BME280;59889;50.700;5.440;2023-07-30T03:37:48;99633.54;;;25.75;31.16
72024;BME280;59889;50.700;5.440;2023-07-30T03:40:14;99635.49;;;25.73;31.18
72024;BME280;59889;50.700;5.440;2023-07-30T03:42:40;99631.08;;;25.86;31.03
72024;BME280;59889;50.700;5.440;2023-07-30T03:45:06;99624.47;;;25.78;31.10
72024;BME280;59889;50.700;5.440;2023-07-30T03:47:32;99622.37;;;25.82;31.06
72024;BME280;59889;50.700;5.440;2023-07-30T03:49:57;99623.43;;;25.89;30.98
72024;BME280;59889;50.700;5.440;2023-07-30T03:52:23;99623.03;;;25.66;30.97
72024;BME280;59889;50.700;5.440;2023-07-30T03:54:49;99623.32;;;25.93;30.91
72024;BME280;59889;50.700;5.440;2023-07-30T03:57:15;99614.97;;;25.90;30.96
72024;BME280;59889;50.700;5.440;2023-07-30T03:59:41;99617.51;;;25.78;31.06
72024;BME280;59889;50.700;5.440;2023-07-30T04:02:07;99613.63;;;25.80;31.05
72024;BME280;59889;50.700;5.440;2023-07-30T04:04:32;99611.28;;;25.81;31.04
72024;BME280;59889;50.700;5.440;2023-07-30T04:06:58;99606.85;;;26.13;30.94
72024;BME280;59889;50.700;5.440;2023-07-30T04:09:24;99612.59;;;25.85;30.96
72024;BME280;59889;50.700;5.440;2023-07-30T04:11:50;99609.11;;;25.81;31.01
72024;BME280;59889;50.700;5.440;2023-07-30T04:14:16;99612.33;;;25.83;31.00
72024;BME280;59889;50.700;5.440;2023-07-30T04:16:42;99606.55;;;25.52;31.06
72024;BME280;59889;50.700;5.440;2023-07-30T04:19:08;99604.18;;;25.83;30.99
72024;BME280;59889;50.700;5.440;2023-07-30T04:21:33;99602.38;;;25.83;30.99
72024;BME280;59889;50.700;5.440;2023-07-30T04:23:59;99601.97;;;25.75;31.06
72024;BME280;59889;50.700;5.440;2023-07-30T04:26:25;99599.43;;;25.71;31.10
72024;BME280;59889;50.700;5.440;2023-07-30T04:28:51;99603.79;;;25.72;31.09
72024;BME280;59889;50.700;5.440;2023-07-30T04:31:17;99604.66;;;25.95;31.09
72024;BME280;59889;50.700;5.440;2023-07-30T04:33:43;99603.81;;;25.72;31.08
72024;BME280;59889;50.700;5.440;2023-07-30T04:36:08;99604.26;;;25.46;31.10
72024;BME280;59889;50.700;5.440;2023-07-30T04:38:34;99607.40;;;25.70;31.11
72024;BME280;59889;50.700;5.440;2023-07-30T04:41:00;99608.69;;;25.69;31.12
72024;BME280;59889;50.700;5.440;2023-07-30T04:43:26;99606.62;;;25.72;31.08
72024;BME280;59889;50.700;5.440;2023-07-30T04:45:52;99606.05;;;25.64;31.14
72024;BME280;59889;50.700;5.440;2023-07-30T04:48:18;99609.27;;;25.54;31.27
72024;BME280;59889;50.700;5.440;2023-07-30T04:50:44;99607.65;;;25.66;31.14
72024;BME280;59889;50.700;5.440;2023-07-30T04:53:09;99617.09;;;25.67;31.12
72024;BME280;59889;50.700;5.440;2023-07-30T04:55:35;99623.18;;;25.73;31.05
72024;BME280;59889;50.700;5.440;2023-07-30T04:58:01;99629.69;;;25.59;31.18
72024;BME280;59889;50.700;5.440;2023-07-30T05:00:27;99632.54;;;25.79;31.24
72024;BME280;59889;50.700;5.440;2023-07-30T05:02:53;99638.95;;;25.59;31.18
72024;BME280;59889;50.700;5.440;2023-07-30T05:05:19;99642.97;;;25.62;31.16
72024;BME280;59889;50.700;5.440;2023-07-30T05:07:45;99642.87;;;25.49;31.03
72024;BME280;59889;50.700;5.440;2023-07-30T05:10:10;99642.25;;;25.50;31.26
72024;BME280;59889;50.700;5.440;2023-07-30T05:12:36;99639.08;;;25.70;31.06
72024;BME280;59889;50.700;5.440;2023-07-30T05:15:03;99640.27;;;25.47;31.03
72024;BME280;59889;50.700;5.440;2023-07-30T05:17:28;99640.80;;;25.65;31.09
72024;BME280;59889;50.700;5.440;2023-07-30T05:19:54;99643.49;;;25.69;31.05
72024;BME280;59889;50.700;5.440;2023-07-30T05:22:20;99643.61;;;25.69;31.05
72024;BME280;59889;50.700;5.440;2023-07-30T05:24:46;99645.34;;;25.71;31.01
72024;BME280;59889;50.700;5.440;2023-07-30T05:27:12;99648.79;;;25.85;31.13
72024;BME280;59889;50.700;5.440;2023-07-30T05:29:37;99647.99;;;25.65;31.07
72024;BME280;59889;50.700;5.440;2023-07-30T05:32:04;99652.74;;;25.63;31.09
72024;BME280;59889;50.700;5.440;2023-07-30T05:34:29;99660.39;;;25.41;31.06
72024;BME280;59889;50.700;5.440;2023-07-30T05:36:55;99658.61;;;25.64;31.07
72024;BME280;59889;50.700;5.440;2023-07-30T05:39:21;99659.55;;;25.71;31.00
72024;BME280;59889;50.700;5.440;2023-07-30T05:41:46;99660.94;;;25.67;31.02
72024;BME280;59889;50.700;5.440;2023-07-30T05:44:12;99661.11;;;25.65;31.06
72024;BME280;59889;50.700;5.440;2023-07-30T05:46:38;99659.82;;;25.66;31.04
72024;BME280;59889;50.700;5.440;2023-07-30T05:49:04;99658.70;;;25.65;31.04
72024;BME280;59889;50.700;5.440;2023-07-30T05:51:30;99664.06;;;25.56;31.15
72024;BME280;59889;50.700;5.440;2023-07-30T05:53:56;99667.64;;;25.65;31.05
72024;BME280;59889;50.700;5.440;2023-07-30T05:56:22;99670.08;;;25.34;31.12
72024;BME280;59889;50.700;5.440;2023-07-30T05:58:47;99675.42;;;25.55;31.15
72024;BME280;59889;50.700;5.440;2023-07-30T06:01:13;99673.03;;;25.58;31.12
72024;BME280;59889;50.700;5.440;2023-07-30T06:03:39;99675.57;;;25.84;31.08
72024;BME280;59889;50.700;5.440;2023-07-30T06:06:05;99679.93;;;25.58;31.12
72024;BME280;59889;50.700;5.440;2023-07-30T06:08:31;99674.81;;;25.59;31.10
72024;BME280;59889;50.700;5.440;2023-07-30T06:11:00;99673.10;;;25.67;31.00
72024;BME280;59889;50.700;5.440;2023-07-30T06:13:23;99671.26;;;25.62;31.05
72024;BME280;59889;50.700;5.440;2023-07-30T06:15:48;99672.37;;;25.53;31.16
72024;BME280;59889;50.700;5.440;2023-07-30T06:18:14;99674.30;;;25.61;31.07
72024;BME280;59889;50.700;5.440;2023-07-30T06:20:40;99670.30;;;25.97;31.19
72024;BME280;59889;50.700;5.440;2023-07-30T06:23:06;99672.06;;;25.64;31.03
72024;BME280;59889;50.700;5.440;2023-07-30T06:25:32;99673.71;;;25.65;31.01
72024;BME280;59889;50.700;5.440;2023-07-30T06:27:58;99673.53;;;25.66;30.99
72024;BME280;59889;50.700;5.440;2023-07-30T06:30:24;99672.47;;;25.61;31.04
72024;BME280;59889;50.700;5.440;2023-07-30T06:32:50;99675.98;;;25.70;30.95
72024;BME280;59889;50.700;5.440;2023-07-30T06:35:15;99680.69;;;25.48;30.93
72024;BME280;59889;50.700;5.440;2023-07-30T06:37:41;99686.04;;;25.73;30.89
72024;BME280;59889;50.700;5.440;2023-07-30T06:40:07;99690.43;;;25.71;30.94
72024;BME280;59889;50.700;5.440;2023-07-30T06:42:33;99695.39;;;25.62;31.02
72024;BME280;59889;50.700;5.440;2023-07-30T06:44:59;99702.31;;;25.36;31.05
72024;BME280;59889;50.700;5.440;2023-07-30T06:47:24;99702.25;;;25.50;30.90
72024;BME280;59889;50.700;5.440;2023-07-30T06:49:50;99699.92;;;25.71;30.94
72024;BME280;59889;50.700;5.440;2023-07-30T06:52:16;99706.33;;;25.70;30.94
72024;BME280;59889;50.700;5.440;2023-07-30T06:54:42;99706.74;;;25.67;30.98
72024;BME280;59889;50.700;5.440;2023-07-30T06:57:08;99703.43;;;25.67;30.97
72024;BME280;59889;50.700;5.440;2023-07-30T06:59:34;99706.33;;;25.68;30.96
72024;BME280;59889;50.700;5.440;2023-07-30T07:02:00;99705.72;;;25.90;30.98
72024;BME280;59889;50.700;5.440;2023-07-30T07:04:25;99706.72;;;25.58;31.10
72024;BME280;59889;50.700;5.440;2023-07-30T07:06:51;99709.53;;;25.88;31.01
72024;BME280;59889;50.700;5.440;2023-07-30T07:09:17;99706.86;;;25.48;31.20
72024;BME280;59889;50.700;5.440;2023-07-30T07:11:43;99713.57;;;25.68;30.96
72024;BME280;59889;50.700;5.440;2023-07-30T07:14:09;99709.66;;;25.71;30.94
72024;BME280;59889;50.700;5.440;2023-07-30T07:16:35;99710.35;;;25.62;31.04
72024;BME280;59889;50.700;5.440;2023-07-30T07:19:01;99711.66;;;25.61;31.05
72024;BME280;59889;50.700;5.440;2023-07-30T07:21:26;99717.32;;;25.60;31.05
72024;BME280;59889;50.700;5.440;2023-07-30T07:23:52;99716.24;;;25.68;30.97
72024;BME280;59889;50.700;5.440;2023-07-30T07:26:18;99717.10;;;25.38;31.01
72024;BME280;59889;50.700;5.440;2023-07-30T07:28:44;99720.99;;;25.92;30.96
72024;BME280;59889;50.700;5.440;2023-07-30T07:31:10;99722.41;;;25.57;31.09
72024;BME280;59889;50.700;5.440;2023-07-30T07:33:36;99717.30;;;25.60;31.05
72024;BME280;59889;50.700;5.440;2023-07-30T07:36:03;99722.39;;;25.62;31.02
72024;BME280;59889;50.700;5.440;2023-07-30T07:38:27;99721.72;;;25.87;31.01
72024;BME280;59889;50.700;5.440;2023-07-30T07:40:53;99724.08;;;25.53;31.13
72024;BME280;59889;50.700;5.440;2023-07-30T07:43:19;99725.16;;;25.59;31.04
72024;BME280;59889;50.700;5.440;2023-07-30T07:45:45;99723.12;;;25.88;30.72
72024;BME280;59889;50.700;5.440;2023-07-30T07:48:11;99720.50;;;25.77;30.82
72024;BME280;59889;50.700;5.440;2023-07-30T07:50:37;99721.40;;;26.16;30.68
72024;BME280;59889;50.700;5.440;2023-07-30T07:53:02;99722.72;;;25.98;30.59
72024;BME280;59889;50.700;5.440;2023-07-30T07:55:28;99724.49;;;26.04;30.56
72024;BME280;59889;50.700;5.440;2023-07-30T07:57:54;99723.52;;;26.26;30.57
72024;BME280;59889;50.700;5.440;2023-07-30T08:00:20;99725.94;;;26.14;30.46
72024;BME280;59889;50.700;5.440;2023-07-30T08:02:46;99725.63;;;26.11;30.49
72024;BME280;59889;50.700;5.440;2023-07-30T08:05:12;99730.31;;;26.18;30.43
72024;BME280;59889;50.700;5.440;2023-07-30T08:07:37;99723.52;;;26.03;30.56
72024;BME280;59889;50.700;5.440;2023-07-30T08:10:04;99723.89;;;26.16;30.43
72024;BME280;59889;50.700;5.440;2023-07-30T08:12:31;99723.71;;;25.85;30.49
72024;BME280;59889;50.700;5.440;2023-07-30T08:14:55;99723.45;;;26.04;30.30
72024;BME280;59889;50.700;5.440;2023-07-30T08:17:21;99722.81;;;26.21;30.40
72024;BME280;59889;50.700;5.440;2023-07-30T08:19:47;99731.43;;;26.12;30.47
72024;BME280;59889;50.700;5.440;2023-07-30T08:22:12;99732.31;;;26.10;30.51
72024;BME280;59889;50.700;5.440;2023-07-30T08:24:38;99732.31;;;26.11;30.50
72024;BME280;59889;50.700;5.440;2023-07-30T08:27:04;99737.45;;;25.92;30.44
72024;BME280;59889;50.700;5.440;2023-07-30T08:29:30;99738.38;;;26.07;30.54
72024;BME280;59889;50.700;5.440;2023-07-30T08:31:56;99737.98;;;26.06;30.55
72024;BME280;59889;50.700;5.440;2023-07-30T08:34:22;99739.52;;;25.72;30.65
72024;BME280;59889;50.700;5.440;2023-07-30T08:36:48;99741.21;;;26.00;30.61
72024;BME280;59889;50.700;5.440;2023-07-30T08:39:13;99737.20;;;26.03;30.57
72024;BME280;59889;50.700;5.440;2023-07-30T08:41:39;99725.59;;;26.04;30.55
72024;BME280;59889;50.700;5.440;2023-07-30T08:44:05;99730.42;;;26.07;30.54
72024;BME280;59889;50.700;5.440;2023-07-30T08:46:31;99725.63;;;26.09;30.50
72024;BME280;59889;50.700;5.440;2023-07-30T08:48:57;99720.69;;;26.00;30.60
72024;BME280;59889;50.700;5.440;2023-07-30T08:51:23;99737.79;;;25.83;30.53
72024;BME280;59889;50.700;5.440;2023-07-30T08:53:49;99737.87;;;26.01;30.58
72024;BME280;59889;50.700;5.440;2023-07-30T08:56:15;99731.29;;;25.75;30.62
72024;BME280;59889;50.700;5.440;2023-07-30T08:58:40;99728.91;;;25.94;30.65
72024;BME280;59889;50.700;5.440;2023-07-30T09:01:09;99725.00;;;26.04;30.54
72024;BME280;59889;50.700;5.440;2023-07-30T09:03:34;99725.60;;;26.12;30.43
72024;BME280;59889;50.700;5.440;2023-07-30T09:05:58;99727.70;;;26.08;30.48
72024;BME280;59889;50.700;5.440;2023-07-30T09:08:24;99726.47;;;25.83;30.49
72024;BME280;59889;50.700;5.440;2023-07-30T09:10:49;99725.81;;;26.00;30.29
72024;BME280;59889;50.700;5.440;2023-07-30T09:13:21;99727.77;;;26.14;30.39
72024;BME280;59889;50.700;5.440;2023-07-30T09:15:41;99734.75;;;25.95;30.33
72024;BME280;59889;50.700;5.440;2023-07-30T09:18:07;99732.38;;;26.00;30.52
72024;BME280;59889;50.700;5.440;2023-07-30T09:20:38;99728.58;;;26.06;30.20
72024;BME280;59889;50.700;5.440;2023-07-30T09:22:59;99734.96;;;25.98;30.26
72024;BME280;59889;50.700;5.440;2023-07-30T09:25:25;99736.14;;;26.12;30.39
72024;BME280;59889;50.700;5.440;2023-07-30T09:27:51;99736.21;;;26.13;30.36
72024;BME280;59889;50.700;5.440;2023-07-30T09:30:22;99734.34;;;26.08;30.43
72024;BME280;59889;50.700;5.440;2023-07-30T09:32:42;99736.46;;;25.62;30.40
72024;BME280;59889;50.700;5.440;2023-07-30T09:35:10;99733.46;;;25.88;30.38
72024;BME280;59889;50.700;5.440;2023-07-30T09:37:37;99737.23;;;25.93;30.34
72024;BME280;59889;50.700;5.440;2023-07-30T09:40:00;99736.31;;;25.88;30.37
72024;BME280;59889;50.700;5.440;2023-07-30T09:42:27;99739.27;;;26.06;30.43
72024;BME280;59889;50.700;5.440;2023-07-30T09:44:51;99746.19;;;25.81;30.43
72024;BME280;59889;50.700;5.440;2023-07-30T09:47:17;99747.10;;;25.75;30.50
72024;BME280;59889;50.700;5.440;2023-07-30T09:49:43;99748.51;;;26.10;30.36
72024;BME280;59889;50.700;5.440;2023-07-30T09:52:09;99749.34;;;26.11;30.35
72024;BME280;59889;50.700;5.440;2023-07-30T09:54:36;99746.66;;;26.12;30.30
72024;BME280;59889;50.700;5.440;2023-07-30T09:57:01;99751.83;;;26.06;30.38
72024;BME280;59889;50.700;5.440;2023-07-30T09:59:26;99756.14;;;26.01;30.44
72024;BME280;59889;50.700;5.440;2023-07-30T10:01:52;99757.80;;;26.03;30.38
72024;BME280;59889;50.700;5.440;2023-07-30T10:04:20;99761.24;;;25.88;30.54
72024;BME280;59889;50.700;5.440;2023-07-30T10:06:48;99762.35;;;26.01;30.42
72024;BME280;59889;50.700;5.440;2023-07-30T10:09:12;99764.79;;;26.05;30.36
72024;BME280;59889;50.700;5.440;2023-07-30T10:11:37;99765.73;;;25.89;30.53
72024;BME280;59889;50.700;5.440;2023-07-30T10:14:02;99763.40;;;25.93;30.47
72024;BME280;59889;50.700;5.440;2023-07-30T10:16:29;99772.92;;;25.67;30.49
72024;BME280;59889;50.700;5.440;2023-07-30T10:18:56;99777.81;;;25.71;30.44
72024;BME280;59889;50.700;5.440;2023-07-30T10:21:23;99773.94;;;25.98;30.42
72024;BME280;59889;50.700;5.440;2023-07-30T10:23:46;99770.32;;;25.94;30.45
72024;BME280;59889;50.700;5.440;2023-07-30T10:26:11;99764.06;;;26.02;30.36
72024;BME280;59889;50.700;5.440;2023-07-30T10:28:37;99768.51;;;25.86;30.53
72024;BME280;59889;50.700;5.440;2023-07-30T10:31:06;99768.98;;;25.83;30.31
72024;BME280;59889;50.700;5.440;2023-07-30T10:35:54;99775.60;;;26.13;30.23
72024;BME280;59889;50.700;5.440;2023-07-30T10:38:21;99771.88;;;26.09;30.28
72024;BME280;59889;50.700;5.440;2023-07-30T10:40:59;99777.18;;;25.86;30.26
72024;BME280;59889;50.700;5.440;2023-07-30T10:43:15;99776.85;;;26.11;30.25
72024;BME280;59889;50.700;5.440;2023-07-30T10:45:48;99775.53;;;26.14;30.20
72024;BME280;59889;50.700;5.440;2023-07-30T10:48:04;99782.87;;;25.58;30.27
72024;BME280;59889;50.700;5.440;2023-07-30T10:50:29;99787.27;;;25.83;30.26
72024;BME280;59889;50.700;5.440;2023-07-30T10:52:55;99789.04;;;25.93;30.41
72024;BME280;59889;50.700;5.440;2023-07-30T10:55:22;99782.02;;;25.92;30.15
72024;BME280;59889;50.700;5.440;2023-07-30T10:57:47;99785.77;;;26.10;30.21
72024;BME280;59889;50.700;5.440;2023-07-30T11:00:12;99786.39;;;26.00;30.31
72024;BME280;59889;50.700;5.440;2023-07-30T11:02:39;99786.71;;;26.01;30.29
72024;BME280;59889;50.700;5.440;2023-07-30T11:05:13;99793.16;;;25.86;30.18
72024;BME280;59889;50.700;5.440;2023-07-30T11:07:30;99802.58;;;26.03;30.25
72024;BME280;59889;50.700;5.440;2023-07-30T11:09:59;99803.18;;;25.99;30.31
72024;BME280;59889;50.700;5.440;2023-07-30T11:12:22;99792.90;;;25.67;30.37
72024;BME280;59889;50.700;5.440;2023-07-30T11:14:48;99797.76;;;26.09;30.17
72024;BME280;59889;50.700;5.440;2023-07-30T11:17:18;99802.03;;;26.03;30.22
72024;BME280;59889;50.700;5.440;2023-07-30T11:19:43;99798.47;;;26.10;30.14
72024;BME280;59889;50.700;5.440;2023-07-30T11:22:05;99798.00;;;26.00;30.24
72024;BME280;59889;50.700;5.440;2023-07-30T11:24:34;99791.38;;;25.93;30.31
72024;BME280;59889;50.700;5.440;2023-07-30T11:26:57;99794.75;;;25.85;30.39
72024;BME280;59889;50.700;5.440;2023-07-30T11:29:23;99796.53;;;25.87;30.36
72024;BME280;59889;50.700;5.440;2023-07-30T11:31:48;99797.16;;;26.01;30.22
72024;BME280;59889;50.700;5.440;2023-07-30T11:34:15;99798.90;;;25.99;30.24
72024;BME280;59889;50.700;5.440;2023-07-30T11:36:41;99800.65;;;25.71;30.28
72024;BME280;59889;50.700;5.440;2023-07-30T11:39:07;99805.25;;;25.75;30.22
72024;BME280;59889;50.700;5.440;2023-07-30T11:41:32;99805.20;;;26.02;30.17
72024;BME280;59889;50.700;5.440;2023-07-30T11:43:58;99813.38;;;25.94;30.27
72024;BME280;59889;50.700;5.440;2023-07-30T11:46:23;99809.43;;;25.96;30.21
72024;BME280;59889;50.700;5.440;2023-07-30T11:48:51;99812.67;;;25.79;30.15
72024;BME280;59889;50.700;5.440;2023-07-30T11:51:20;99809.41;;;25.84;30.08
72024;BME280;59889;50.700;5.440;2023-07-30T11:53:46;99818.91;;;26.01;30.15
72024;BME280;59889;50.700;5.440;2023-07-30T11:56:07;99824.38;;;25.86;30.04
72024;BME280;59889;50.700;5.440;2023-07-30T11:58:33;99825.43;;;25.84;30.04
72024;BME280;59889;50.700;5.440;2023-07-30T12:00:59;99826.73;;;25.92;30.19
72024;BME280;59889;50.700;5.440;2023-07-30T12:03:25;99824.03;;;25.97;30.12
72024;BME280;59889;50.700;5.440;2023-07-30T12:05:50;99825.06;;;26.04;30.04
72024;BME280;59889;50.700;5.440;2023-07-30T12:08:16;99824.93;;;26.08;29.98
72024;BME280;59889;50.700;5.440;2023-07-30T12:10:43;99823.03;;;25.92;30.13
72024;BME280;59889;50.700;5.440;2023-07-30T12:13:11;99823.45;;;26.10;29.93
72024;BME280;59889;50.700;5.440;2023-07-30T12:15:34;99820.18;;;26.04;29.99
72024;BME280;59889;50.700;5.440;2023-07-30T12:18:00;99815.08;;;25.99;30.03
72024;BME280;59889;50.700;5.440;2023-07-30T12:20:27;99815.60;;;26.07;29.92
72024;BME280;59889;50.700;5.440;2023-07-30T12:22:51;99819.50;;;26.09;29.91
72024;BME280;59889;50.700;5.440;2023-07-30T12:25:17;99824.43;;;26.08;29.91
72024;BME280;59889;50.700;5.440;2023-07-30T12:27:43;99828.08;;;26.10;29.88
72024;BME280;59889;50.700;5.440;2023-07-30T12:30:10;99820.67;;;25.74;30.00
72024;BME280;59889;50.700;5.440;2023-07-30T12:32:35;99823.63;;;26.10;29.87
72024;BME280;59889;50.700;5.440;2023-07-30T12:35:01;99819.69;;;26.07;29.90
72024;BME280;59889;50.700;5.440;2023-07-30T12:37:27;99820.74;;;26.06;29.91
72024;BME280;59889;50.700;5.440;2023-07-30T12:39:52;99818.55;;;26.06;29.90
72024;BME280;59889;50.700;5.440;2023-07-30T12:42:18;99819.75;;;25.96;30.00
72024;BME280;59889;50.700;5.440;2023-07-30T12:44:44;99822.07;;;25.83;29.88
72024;BME280;59889;50.700;5.440;2023-07-30T12:47:10;99821.18;;;25.81;29.92
72024;BME280;59889;50.700;5.440;2023-07-30T12:49:36;99817.98;;;26.01;29.93
72024;BME280;59889;50.700;5.440;2023-07-30T12:52:02;99817.91;;;25.78;29.94
72024;BME280;59889;50.700;5.440;2023-07-30T12:54:28;99820.36;;;25.75;29.94